CheckWX is a tool to help pilots better visualize weather data.  It is not intended as a substitute for an official pre-flight weather briefing.

20:11:55 UTC

KBIH METAR
Bishop Airport
Bishop, California, USA
Current

16 mins ago

KBIH 261956Z AUTO 15014G21KT 10SM CLR 19/M08 A2956 RMK AO2 PK WND 14029/1905 WSHFT 1851 SLP977 T01941083
Observed
May-26 @ 19:56 UTC
Wind
  • 150° at 14 KTS
  • Gusting to 21 KTS
Visibility
10 SM
Flight Rules
VFR
Cloud Levels
  • Clear skies
Temperature
19°C / 66°F
Dewpoint
-8°C / 18°F
Humidity
15%
Altimeter
29.56" Hg
Pressure
1001.02 hPa
Previous

1 hour ago

KBIH 261911Z AUTO 23007G29KT 210V290 10SM BKN110 19/M08 A2957 RMK AO2 PK WND 14029/1905 WSHFT 1851 T01941078
Observed
May-26 @ 19:11 UTC
Wind
  • 230° at 7 KTS
  • Gusting to 29 KTS
Visibility
10 SM
Flight Rules
VFR
Cloud Levels
  • Broken at 11,000' AGL
Temperature
19°C / 66°F
Dewpoint
-8°C / 18°F
Humidity
15%
Altimeter
29.57" Hg
Pressure
1001.32 hPa
Previous

1 hour ago

KBIH 261856Z AUTO 14018G22KT 10SM BKN100 20/M07 A2957 RMK AO2 PK WND 14036/1804 SLP980 T02001072
Observed
May-26 @ 18:56 UTC
Wind
  • 140° at 18 KTS
  • Gusting to 22 KTS
Visibility
10 SM
Flight Rules
VFR
Cloud Levels
  • Broken at 10,000' AGL
Temperature
20°C / 68°F
Dewpoint
-7°C / 19°F
Humidity
16%
Altimeter
29.57" Hg
Pressure
1001.32 hPa